Time;durP1;ratioP1;P1;durP2;ratioP2;P2;SDS_P1;SDS_P2;PMS_P1;PMS_P2;Temp;Humidity;BMP_temperature;BMP_pressure;BME280_temperature;BME280_humidity;BME280_pressure;Samples;Min_cycle;Max_cycle;Signal;HPM_P1;HPM_P2
2024/02/25 00:01:25;;;;;;;1.80;1.02;;;8.40;99.90;;;;;;5025385;28;20213;-46
2024/02/25 00:03:53;;;;;;;2.93;1.20;;;8.30;99.90;;;;;;5022583;28;20742;-45
2024/02/25 00:06:22;;;;;;;2.28;0.80;;;8.40;99.90;;;;;;5030882;28;20479;-45
2024/02/25 00:08:50;;;;;;;2.05;0.80;;;8.40;99.90;;;;;;5030642;28;20200;-45
2024/02/25 00:11:20;;;;;;;1.90;0.90;;;8.40;99.90;;;;;;5028414;28;20217;-46
2024/02/25 00:13:49;;;;;;;1.77;0.80;;;8.30;99.90;;;;;;5011363;28;20626;-44
2024/02/25 00:16:18;;;;;;;1.57;0.80;;;8.40;99.90;;;;;;5023800;28;20655;-46
2024/02/25 00:18:46;;;;;;;2.30;0.80;;;8.30;99.90;;;;;;5028900;28;20613;-46
2024/02/25 00:21:15;;;;;;;1.50;0.68;;;8.30;99.90;;;;;;5031671;28;20254;-47
2024/02/25 00:23:45;;;;;;;1.50;0.85;;;8.30;99.90;;;;;;5028628;28;20217;-45
2024/02/25 00:26:13;;;;;;;1.50;0.93;;;8.30;99.90;;;;;;5031406;28;20225;-46
2024/02/25 00:28:42;;;;;;;2.07;0.70;;;8.40;99.90;;;;;;5026655;28;20471;-45
2024/02/25 00:31:11;;;;;;;1.55;0.90;;;8.30;99.90;;;;;;5012305;28;20579;-47
2024/02/25 00:33:42;;;;;;;1.60;0.87;;;8.30;99.90;;;;;;5021311;28;20566;-45
2024/02/25 00:36:10;;;;;;;1.40;0.75;;;8.30;99.90;;;;;;5024933;28;20894;-46
2024/02/25 00:38:39;;;;;;;2.22;1.00;;;8.30;99.90;;;;;;5021874;28;20193;-45
2024/02/25 00:41:08;;;;;;;1.30;0.82;;;8.30;99.90;;;;;;5029721;28;20221;-46
2024/02/25 00:43:37;;;;;;;1.48;1.05;;;8.30;99.90;;;;;;5028068;28;20199;-46
2024/02/25 00:46:08;;;;;;;1.35;0.70;;;8.30;99.90;;;;;;5022045;28;20732;-45
2024/02/25 00:48:38;;;;;;;2.85;0.90;;;8.30;99.90;;;;;;5027582;28;20224;-45
2024/02/25 00:51:07;;;;;;;2.60;1.00;;;8.30;99.90;;;;;;5031005;28;20241;-45
2024/02/25 00:53:36;;;;;;;2.40;0.70;;;8.30;99.90;;;;;;5028301;28;20196;-45
2024/02/25 00:56:08;;;;;;;1.67;0.83;;;8.30;99.90;;;;;;5025575;28;20591;-46
2024/02/25 00:58:38;;;;;;;1.67;0.93;;;8.30;99.90;;;;;;5030528;28;20791;-46
2024/02/25 01:01:14;;;;;;;2.88;1.20;;;8.30;99.90;;;;;;5028373;28;20471;-46
2024/02/25 01:03:43;;;;;;;1.98;0.90;;;8.30;99.90;;;;;;5020241;28;20205;-46
2024/02/25 01:06:12;;;;;;;1.90;1.00;;;8.30;99.90;;;;;;5027812;28;20221;-46
2024/02/25 01:08:41;;;;;;;2.10;1.13;;;8.30;99.90;;;;;;5027889;28;20290;-45
2024/02/25 01:11:12;;;;;;;3.30;0.80;;;8.30;99.90;;;;;;5028306;28;20633;-45
2024/02/25 01:13:42;;;;;;;1.55;0.82;;;8.30;99.90;;;;;;5020363;28;20212;-47
2024/02/25 01:16:12;;;;;;;1.35;0.93;;;8.30;99.90;;;;;;5028735;28;20221;-45
2024/02/25 01:18:42;;;;;;;1.33;0.80;;;8.30;99.90;;;;;;5028994;28;20198;-45
2024/02/25 01:21:12;;;;;;;2.50;0.90;;;8.30;99.90;;;;;;5028685;28;20227;-45
2024/02/25 01:23:41;;;;;;;1.58;0.90;;;8.30;99.90;;;;;;5022787;28;20446;-45
2024/02/25 01:26:11;;;;;;;1.30;0.73;;;8.30;99.90;;;;;;5027466;28;20224;-46
2024/02/25 01:28:42;;;;;;;1.90;1.00;;;8.30;99.90;;;;;;5028256;28;20208;-45
2024/02/25 01:31:13;;;;;;;1.23;0.80;;;8.30;99.90;;;;;;5028448;28;20233;-46
2024/02/25 01:33:42;;;;;;;1.30;0.70;;;8.30;99.90;;;;;;5023362;28;20263;-45
2024/02/25 01:36:11;;;;;;;1.73;0.98;;;8.30;99.90;;;;;;5028187;28;20310;-44
2024/02/25 01:38:41;;;;;;;1.45;0.63;;;8.30;99.90;;;;;;5021308;28;20650;-46
2024/02/25 01:41:10;;;;;;;2.10;1.00;;;8.30;99.90;;;;;;5029562;28;20220;-45
2024/02/25 01:43:40;;;;;;;1.20;0.80;;;8.30;99.90;;;;;;5026535;28;20186;-46
2024/02/25 01:46:10;;;;;;;1.40;0.80;;;8.30;99.90;;;;;;5028956;28;20224;-45
2024/02/25 01:48:39;;;;;;;1.85;0.90;;;8.30;99.90;;;;;;5023221;28;20614;-46
2024/02/25 01:51:07;;;;;;;2.35;0.85;;;8.30;99.90;;;;;;5025131;28;20216;-46
2024/02/25 01:53:37;;;;;;;1.30;0.52;;;8.30;99.90;;;;;;5030109;28;20208;-46
2024/02/25 01:56:07;;;;;;;1.83;1.03;;;8.30;99.90;;;;;;5009549;28;20601;-46
2024/02/25 01:58:36;;;;;;;1.60;0.90;;;8.30;99.90;;;;;;5019769;28;20448;-45
2024/02/25 02:01:04;;;;;;;1.50;0.75;;;8.30;99.90;;;;;;5025897;28;20633;-44
2024/02/25 02:03:32;;;;;;;3.70;2.50;;;8.30;99.90;;;;;;5023683;28;20578;-45
2024/02/25 02:06:03;;;;;;;3.85;1.40;;;8.30;99.90;;;;;;5026023;28;20546;-46
2024/02/25 02:08:31;;;;;;;3.08;2.10;;;8.30;99.90;;;;;;5033065;28;20195;-45
2024/02/25 02:11:14;;;;;;;1.50;0.80;;;8.30;99.90;;;;;;5022618;28;20221;-47
2024/02/25 02:13:42;;;;;;;1.40;0.97;;;8.30;99.90;;;;;;5024607;28;20481;-45
2024/02/25 02:16:13;;;;;;;1.33;0.57;;;8.30;99.90;;;;;;5027337;28;20508;-45
2024/02/25 02:18:42;;;;;;;1.38;0.95;;;8.30;99.90;;;;;;5027247;28;20545;-45
2024/02/25 02:21:15;;;;;;;1.77;1.00;;;8.20;99.90;;;;;;5029551;28;20225;-45
2024/02/25 02:23:47;;;;;;;1.52;0.73;;;8.20;99.90;;;;;;5016903;28;20697;-46
2024/02/25 02:26:16;;;;;;;1.25;0.70;;;8.20;99.90;;;;;;5007402;28;20244;-46
2024/02/25 02:28:45;;;;;;;1.20;0.40;;;8.20;99.90;;;;;;5012464;28;20277;-45
2024/02/25 02:31:17;;;;;;;1.20;0.70;;;8.20;99.90;;;;;;5013455;28;20226;-45
2024/02/25 02:33:46;;;;;;;1.83;0.80;;;8.20;99.90;;;;;;5004942;28;20475;-45
2024/02/25 02:36:15;;;;;;;1.48;0.80;;;8.20;99.90;;;;;;5010419;28;20258;-45
2024/02/25 02:38:45;;;;;;;1.40;0.60;;;8.20;99.90;;;;;;5013102;28;20653;-46
2024/02/25 02:41:19;;;;;;;1.30;0.67;;;8.20;99.90;;;;;;5008876;28;20221;-46
2024/02/25 02:43:47;;;;;;;1.70;0.85;;;8.20;99.90;;;;;;4996203;28;20453;-45
2024/02/25 02:46:15;;;;;;;1.70;0.68;;;8.20;99.90;;;;;;5000281;28;20226;-45
2024/02/25 02:48:45;;;;;;;2.70;0.80;;;8.20;99.90;;;;;;5010152;28;20667;-46
2024/02/25 02:51:15;;;;;;;1.48;0.70;;;8.20;99.90;;;;;;5013101;28;20460;-47
2024/02/25 02:53:45;;;;;;;1.30;0.70;;;8.20;99.90;;;;;;5010431;28;20222;-45
2024/02/25 02:56:14;;;;;;;1.48;0.80;;;8.20;99.90;;;;;;5006579;28;20221;-46
2024/02/25 02:58:43;;;;;;;2.75;0.73;;;8.20;99.90;;;;;;5012180;28;20204;-46
2024/02/25 03:01:12;;;;;;;1.10;0.55;;;8.20;99.90;;;;;;4990182;28;20225;-46
2024/02/25 03:03:41;;;;;;;2.10;0.98;;;8.20;99.90;;;;;;5008082;28;20198;-47
2024/02/25 03:06:12;;;;;;;1.70;0.63;;;8.20;99.90;;;;;;5005318;28;20771;-46
2024/02/25 03:08:43;;;;;;;1.30;0.73;;;8.20;99.90;;;;;;5008244;28;20702;-46
2024/02/25 03:11:12;;;;;;;1.27;0.80;;;8.20;99.90;;;;;;5007809;28;20229;-46
2024/02/25 03:13:40;;;;;;;1.83;0.70;;;8.10;99.90;;;;;;5008323;28;20767;-46
2024/02/25 03:16:12;;;;;;;1.35;0.73;;;8.10;99.90;;;;;;4994946;28;20644;-46
2024/02/25 03:18:42;;;;;;;1.10;0.50;;;8.10;99.90;;;;;;5008858;28;20198;-45
2024/02/25 03:21:11;;;;;;;1.20;0.60;;;8.20;99.90;;;;;;5005518;28;20217;-45
2024/02/25 03:23:39;;;;;;;1.30;0.60;;;8.20;99.90;;;;;;5006227;28;20185;-44
2024/02/25 03:26:15;;;;;;;1.50;0.80;;;8.10;99.90;;;;;;5001265;28;20480;-45
2024/02/25 03:28:46;;;;;;;2.75;0.80;;;8.10;99.90;;;;;;5006308;28;20577;-46
2024/02/25 03:31:16;;;;;;;1.20;0.60;;;8.10;99.90;;;;;;5012897;28;20638;-45
2024/02/25 03:33:45;;;;;;;1.73;0.60;;;8.20;99.90;;;;;;5008397;28;20994;-46
2024/02/25 03:36:15;;;;;;;1.60;0.70;;;8.10;99.90;;;;;;5011062;28;20591;-46
2024/02/25 03:38:47;;;;;;;1.65;0.93;;;8.10;99.90;;;;;;5007866;28;20170;-46
2024/02/25 03:41:18;;;;;;;1.40;0.60;;;8.20;99.90;;;;;;4994364;28;21681;-45
2024/02/25 03:43:46;;;;;;;1.67;1.05;;;8.20;99.90;;;;;;4999779;28;20236;-45
2024/02/25 03:46:15;;;;;;;1.10;0.55;;;8.10;99.90;;;;;;5012613;28;20226;-46
2024/02/25 03:48:46;;;;;;;2.75;0.77;;;8.10;99.90;;;;;;5017549;28;20206;-46
2024/02/25 03:51:15;;;;;;;1.17;0.63;;;8.10;99.90;;;;;;5011660;28;20228;-46
2024/02/25 03:53:46;;;;;;;1.30;0.60;;;8.10;99.90;;;;;;5012709;28;20305;-45
2024/02/25 03:56:14;;;;;;;1.40;0.60;;;8.10;99.90;;;;;;5011288;28;20727;-46
2024/02/25 03:58:44;;;;;;;1.20;0.60;;;8.10;99.90;;;;;;5002838;28;20488;-45
2024/02/25 04:01:13;;;;;;;1.77;0.73;;;8.10;99.90;;;;;;5010708;28;20670;-46
2024/02/25 04:03:42;;;;;;;1.70;0.73;;;8.10;99.90;;;;;;5008152;28;20432;-46
2024/02/25 04:06:12;;;;;;;1.73;0.60;;;8.10;99.90;;;;;;5007987;28;20554;-46
2024/02/25 04:08:42;;;;;;;1.55;0.50;;;8.10;99.90;;;;;;5003237;28;20295;-46
2024/02/25 04:11:11;;;;;;;1.30;0.60;;;8.10;99.90;;;;;;5017094;28;20224;-45
2024/02/25 04:13:44;;;;;;;1.10;0.60;;;8.10;99.90;;;;;;5002828;28;20259;-46
2024/02/25 04:16:13;;;;;;;2.10;1.00;;;8.10;99.90;;;;;;5009904;28;20599;-45
2024/02/25 04:18:43;;;;;;;1.40;0.65;;;8.10;99.90;;;;;;5003545;28;20201;-46
2024/02/25 04:21:11;;;;;;;1.85;0.70;;;8.10;99.90;;;;;;5011713;28;20577;-46
2024/02/25 04:23:44;;;;;;;1.95;0.68;;;8.10;99.90;;;;;;5004276;28;20190;-44
2024/02/25 04:26:12;;;;;;;1.83;0.65;;;8.10;99.90;;;;;;5010577;28;20220;-45
2024/02/25 04:28:41;;;;;;;1.13;0.60;;;8.10;99.90;;;;;;5011773;28;20190;-45
2024/02/25 04:31:12;;;;;;;1.30;0.83;;;8.10;99.90;;;;;;5010986;28;20336;-45
2024/02/25 04:33:43;;;;;;;1.60;0.70;;;8.10;99.90;;;;;;4996082;28;20479;-45
2024/02/25 04:36:16;;;;;;;1.67;0.65;;;8.10;99.90;;;;;;5006169;28;20218;-46
2024/02/25 04:38:46;;;;;;;1.00;0.50;;;8.10;99.90;;;;;;5012100;28;20662;-45
2024/02/25 04:41:15;;;;;;;1.20;0.50;;;8.10;99.90;;;;;;5007451;28;20757;-46
2024/02/25 04:43:46;;;;;;;1.20;0.50;;;8.10;99.90;;;;;;5011162;28;20264;-45
2024/02/25 04:46:17;;;;;;;1.50;0.70;;;8.10;99.90;;;;;;5009860;28;20441;-47
2024/02/25 04:48:47;;;;;;;1.20;0.63;;;8.10;99.90;;;;;;5009230;28;20477;-45
2024/02/25 04:51:16;;;;;;;1.23;0.55;;;8.10;99.90;;;;;;5010920;28;20595;-46
2024/02/25 04:53:44;;;;;;;1.20;0.60;;;8.10;99.90;;;;;;5011253;28;20224;-45
2024/02/25 04:56:12;;;;;;;1.30;0.60;;;8.10;99.90;;;;;;5004844;28;20216;-46
2024/02/25 04:58:42;;;;;;;1.10;0.60;;;8.10;99.90;;;;;;5018871;28;20433;-45
2024/02/25 05:01:12;;;;;;;1.20;0.60;;;8.10;99.90;;;;;;5010891;28;20275;-46
2024/02/25 05:03:43;;;;;;;1.85;0.93;;;8.10;99.90;;;;;;5002451;28;20178;-45
2024/02/25 05:06:12;;;;;;;1.40;0.60;;;8.10;99.90;;;;;;5007820;28;20642;-47
2024/02/25 05:08:41;;;;;;;1.65;0.50;;;8.10;99.90;;;;;;5002902;28;20295;-45
2024/02/25 05:11:10;;;;;;;1.42;0.35;;;8.10;99.90;;;;;;5010802;28;20220;-45
2024/02/25 05:13:42;;;;;;;1.50;0.70;;;8.10;99.90;;;;;;4998965;28;20196;-45
2024/02/25 05:16:12;;;;;;;1.17;0.50;;;8.10;99.90;;;;;;5010291;28;20217;-47
2024/02/25 05:18:40;;;;;;;1.37;0.50;;;8.10;99.90;;;;;;5008607;28;20456;-47
2024/02/25 05:21:10;;;;;;;1.00;0.40;;;8.10;99.90;;;;;;5006435;28;20548;-46
2024/02/25 05:23:40;;;;;;;1.20;0.50;;;8.10;99.90;;;;;;5007698;28;20483;-46
2024/02/25 05:26:08;;;;;;;0.90;0.40;;;8.10;99.90;;;;;;5010279;28;20464;-46
2024/02/25 05:28:36;;;;;;;1.35;0.50;;;8.10;99.90;;;;;;5025435;28;20225;-47
2024/02/25 05:31:06;;;;;;;1.83;0.40;;;8.10;99.90;;;;;;5009146;28;20568;-49
2024/02/25 05:33:34;;;;;;;1.20;0.55;;;8.10;99.90;;;;;;5010116;28;20444;-46
2024/02/25 05:36:05;;;;;;;1.50;0.50;;;8.10;99.90;;;;;;5009116;28;20224;-46
2024/02/25 05:38:35;;;;;;;1.25;0.60;;;8.10;99.90;;;;;;5010030;28;20198;-47
2024/02/25 05:41:07;;;;;;;1.10;0.40;;;8.10;99.90;;;;;;5009399;28;20222;-46
2024/02/25 05:43:36;;;;;;;1.20;0.57;;;8.10;99.90;;;;;;5002188;28;21841;-47
2024/02/25 05:46:05;;;;;;;1.13;0.52;;;8.10;99.90;;;;;;5009010;28;20237;-46
2024/02/25 05:48:33;;;;;;;1.50;0.55;;;8.10;99.90;;;;;;5006491;28;20287;-47
2024/02/25 05:51:04;;;;;;;1.35;0.80;;;8.10;99.90;;;;;;5005938;28;20289;-46
2024/02/25 05:53:35;;;;;;;1.63;0.57;;;8.10;99.90;;;;;;5005345;28;20347;-46
2024/02/25 05:56:06;;;;;;;1.43;0.70;;;8.10;99.90;;;;;;5005108;28;20213;-46
2024/02/25 05:58:36;;;;;;;1.75;0.70;;;8.10;99.90;;;;;;5005477;28;20927;-47
2024/02/25 06:01:07;;;;;;;1.35;0.57;;;8.10;99.90;;;;;;5013505;28;20273;-50
2024/02/25 06:03:36;;;;;;;1.20;0.50;;;8.10;99.90;;;;;;5009909;28;20289;-47
2024/02/25 06:06:04;;;;;;;1.00;0.40;;;8.10;99.90;;;;;;5012006;28;20217;-47
2024/02/25 06:08:37;;;;;;;1.30;0.77;;;8.00;99.90;;;;;;5012813;28;20288;-47
2024/02/25 06:11:07;;;;;;;1.90;0.50;;;8.00;99.90;;;;;;5014482;28;20218;-46
2024/02/25 06:13:38;;;;;;;1.40;0.90;;;8.00;99.90;;;;;;5015081;28;20205;-45
2024/02/25 06:16:07;;;;;;;1.63;0.45;;;8.00;99.90;;;;;;5015097;28;20242;-45
2024/02/25 06:18:39;;;;;;;1.95;0.80;;;8.00;99.90;;;;;;4999660;28;20210;-46
2024/02/25 06:21:07;;;;;;;1.35;0.50;;;8.00;99.90;;;;;;5016859;28;20212;-43
2024/02/25 06:23:40;;;;;;;1.10;0.60;;;8.00;99.90;;;;;;5014620;28;20739;-44
2024/02/25 06:26:10;;;;;;;1.60;0.80;;;8.00;99.90;;;;;;5012737;28;20774;-45
2024/02/25 06:28:38;;;;;;;1.33;0.40;;;8.00;99.90;;;;;;5011968;28;20210;-44
2024/02/25 06:31:09;;;;;;;1.52;0.80;;;8.00;99.90;;;;;;5011691;28;20471;-45
2024/02/25 06:33:37;;;;;;;1.85;0.70;;;8.00;99.90;;;;;;5011173;28;21325;-44
2024/02/25 06:36:18;;;;;;;1.15;0.50;;;8.00;99.90;;;;;;5016889;28;20216;-44
2024/02/25 06:38:47;;;;;;;1.20;0.50;;;8.00;99.90;;;;;;5008239;28;20192;-44
2024/02/25 06:41:20;;;;;;;1.30;0.57;;;8.00;99.90;;;;;;5012981;28;20227;-45
2024/02/25 06:43:49;;;;;;;2.00;0.63;;;8.00;99.90;;;;;;5013238;28;20779;-43
2024/02/25 06:46:18;;;;;;;1.10;0.55;;;8.00;99.90;;;;;;5014626;28;20232;-45
2024/02/25 06:48:46;;;;;;;1.35;0.70;;;8.00;99.90;;;;;;5013171;28;20220;-45
2024/02/25 06:51:22;;;;;;;2.20;0.77;;;8.00;99.90;;;;;;5014323;28;20293;-44
2024/02/25 06:53:52;;;;;;;1.20;0.43;;;8.00;99.90;;;;;;5011365;28;20243;-45
2024/02/25 06:56:20;;;;;;;1.95;0.90;;;8.00;99.90;;;;;;5009948;28;20301;-46
2024/02/25 06:58:54;;;;;;;1.20;0.45;;;8.00;99.90;;;;;;5015328;28;20562;-43
2024/02/25 07:01:23;;;;;;;1.58;0.80;;;8.00;99.90;;;;;;5010620;28;20244;-43
2024/02/25 07:03:54;;;;;;;1.23;0.50;;;8.00;99.90;;;;;;5010953;28;20244;-44
2024/02/25 07:06:26;;;;;;;1.30;0.75;;;8.00;99.90;;;;;;5012959;28;20233;-44
2024/02/25 07:08:58;;;;;;;1.30;0.57;;;8.00;99.90;;;;;;5013666;28;20210;-45
2024/02/25 07:11:28;;;;;;;1.88;1.05;;;8.00;99.90;;;;;;5012875;28;20492;-43
2024/02/25 07:13:57;;;;;;;1.70;0.90;;;8.00;99.90;;;;;;5013322;28;20309;-45
2024/02/25 07:16:27;;;;;;;1.90;0.70;;;7.90;99.90;;;;;;5013649;28;20252;-43
2024/02/25 07:18:57;;;;;;;1.60;0.93;;;8.00;99.90;;;;;;5013421;28;20566;-44
2024/02/25 07:21:27;;;;;;;2.10;0.60;;;8.00;99.90;;;;;;5012272;28;20253;-45
2024/02/25 07:23:55;;;;;;;1.42;0.60;;;8.00;99.90;;;;;;5007402;28;20811;-45
2024/02/25 07:26:28;;;;;;;1.10;0.60;;;8.00;99.90;;;;;;5011899;28;20745;-45
2024/02/25 07:28:56;;;;;;;1.30;0.70;;;8.00;99.90;;;;;;5016560;28;20209;-45
2024/02/25 07:31:27;;;;;;;1.35;0.60;;;7.90;99.90;;;;;;5026467;28;20585;-44
2024/02/25 07:33:55;;;;;;;1.40;0.70;;;7.90;99.90;;;;;;5013532;28;20217;-45
2024/02/25 07:36:27;;;;;;;1.52;0.60;;;8.00;99.90;;;;;;5022122;28;20303;-44
2024/02/25 07:38:55;;;;;;;1.70;0.60;;;8.00;99.90;;;;;;5027828;28;20186;-44
2024/02/25 07:41:24;;;;;;;2.30;1.15;;;8.00;99.90;;;;;;5025458;28;20225;-44
2024/02/25 07:43:54;;;;;;;1.55;0.60;;;8.00;99.90;;;;;;5012208;28;20753;-44
2024/02/25 07:46:27;;;;;;;2.00;0.70;;;8.00;99.90;;;;;;5012053;28;20240;-44
2024/02/25 07:48:55;;;;;;;1.63;0.68;;;8.00;99.90;;;;;;5016551;28;20217;-44
2024/02/25 07:51:23;;;;;;;1.60;0.80;;;8.00;99.90;;;;;;5012737;28;20223;-43
2024/02/25 07:53:56;;;;;;;1.85;0.60;;;8.00;99.90;;;;;;5012376;28;20222;-45
2024/02/25 07:56:27;;;;;;;1.00;0.43;;;7.90;99.90;;;;;;5010880;28;20295;-44
2024/02/25 07:58:56;;;;;;;1.13;0.60;;;7.90;99.90;;;;;;5007124;28;20742;-43
2024/02/25 08:01:25;;;;;;;1.25;0.50;;;7.90;99.90;;;;;;5013113;28;20703;-44
2024/02/25 08:03:54;;;;;;;1.48;0.55;;;7.90;99.90;;;;;;5010774;28;20210;-45
2024/02/25 08:06:27;;;;;;;1.27;0.60;;;8.00;99.90;;;;;;5011265;28;20218;-45
2024/02/25 08:08:55;;;;;;;1.92;0.70;;;8.00;99.90;;;;;;5014625;28;20256;-46
2024/02/25 08:11:24;;;;;;;1.55;0.73;;;8.00;99.90;;;;;;5011612;28;20611;-45
2024/02/25 08:13:57;;;;;;;1.70;0.68;;;7.90;99.90;;;;;;5011920;28;20298;-45
2024/02/25 08:16:30;;;;;;;1.48;0.60;;;8.00;99.90;;;;;;4999008;28;20228;-45
2024/02/25 08:19:00;;;;;;;2.08;0.77;;;8.00;99.90;;;;;;5009676;28;20670;-45
2024/02/25 08:21:29;;;;;;;4.05;1.25;;;8.00;99.90;;;;;;5010090;28;20210;-45
2024/02/25 08:23:57;;;;;;;2.10;1.00;;;7.90;99.90;;;;;;5014136;28;20225;-45
2024/02/25 08:26:26;;;;;;;2.80;1.02;;;7.90;99.90;;;;;;5010515;28;20230;-45
2024/02/25 08:28:56;;;;;;;1.70;0.90;;;7.90;99.90;;;;;;5012122;28;20633;-43
2024/02/25 08:31:26;;;;;;;2.05;0.95;;;7.90;99.90;;;;;;5015992;28;20223;-46
2024/02/25 08:33:55;;;;;;;1.40;0.80;;;7.90;99.90;;;;;;4994028;28;20217;-44
2024/02/25 08:36:24;;;;;;;1.45;0.80;;;8.00;99.90;;;;;;5008981;28;20214;-44
2024/02/25 08:38:54;;;;;;;1.80;0.95;;;8.00;99.90;;;;;;5015840;28;20256;-44
2024/02/25 08:41:25;;;;;;;2.78;0.88;;;8.00;99.90;;;;;;5008541;28;20216;-44
2024/02/25 08:43:58;;;;;;;2.25;1.00;;;8.10;99.90;;;;;;5015160;28;20210;-44
2024/02/25 08:46:27;;;;;;;2.28;0.85;;;8.10;99.90;;;;;;5010856;28;20273;-42
2024/02/25 08:48:55;;;;;;;7.07;0.90;;;8.10;99.90;;;;;;5007200;28;20266;-45
2024/02/25 08:51:23;;;;;;;1.80;0.75;;;8.30;99.90;;;;;;5010114;28;20306;-44
2024/02/25 08:53:52;;;;;;;3.28;1.23;;;8.30;99.90;;;;;;5000609;28;20573;-43
2024/02/25 08:56:21;;;;;;;2.42;1.00;;;8.30;99.90;;;;;;5007257;28;20226;-46
2024/02/25 08:58:50;;;;;;;3.40;0.95;;;8.30;99.90;;;;;;5009050;28;20189;-42
2024/02/25 09:01:21;;;;;;;4.88;1.55;;;8.30;99.90;;;;;;5010632;28;20229;-44
2024/02/25 09:03:51;;;;;;;3.15;0.90;;;8.40;99.90;;;;;;5006861;28;20688;-45
2024/02/25 09:06:22;;;;;;;1.65;0.90;;;8.40;99.90;;;;;;5007948;28;20229;-44
2024/02/25 09:08:51;;;;;;;2.33;1.02;;;8.40;99.90;;;;;;5009133;28;20383;-45
2024/02/25 09:11:20;;;;;;;1.50;0.70;;;8.40;99.90;;;;;;5001265;28;20228;-45
2024/02/25 09:13:51;;;;;;;1.73;0.70;;;8.30;99.90;;;;;;5003784;28;20296;-45
2024/02/25 09:16:20;;;;;;;3.50;0.90;;;8.30;99.90;;;;;;5005940;28;20471;-44
2024/02/25 09:18:51;;;;;;;1.58;0.70;;;8.40;99.90;;;;;;5009081;28;20644;-45
2024/02/25 09:21:20;;;;;;;4.18;1.00;;;8.40;99.90;;;;;;5012839;28;20714;-45
2024/02/25 09:23:49;;;;;;;3.00;0.80;;;8.40;99.90;;;;;;5005329;28;20576;-45
2024/02/25 09:26:17;;;;;;;2.30;1.20;;;8.40;99.90;;;;;;5010856;28;20878;-46
2024/02/25 09:28:59;;;;;;;2.22;0.73;;;8.40;99.90;;;;;;5011736;28;20191;-46
2024/02/25 09:31:29;;;;;;;1.30;0.67;;;8.40;99.90;;;;;;5010485;28;20259;-46
2024/02/25 09:33:58;;;;;;;2.33;0.85;;;8.40;99.90;;;;;;5007720;28;20997;-46
2024/02/25 09:36:28;;;;;;;1.60;0.80;;;8.50;99.90;;;;;;5007080;28;20297;-46
2024/02/25 09:38:57;;;;;;;3.30;1.00;;;8.50;99.90;;;;;;5015057;28;20210;-46
2024/02/25 09:41:29;;;;;;;1.60;1.03;;;8.50;99.90;;;;;;5010191;28;20472;-46
2024/02/25 09:43:57;;;;;;;3.70;0.63;;;8.50;99.90;;;;;;5008761;28;20452;-44
2024/02/25 09:46:25;;;;;;;1.50;0.70;;;8.50;99.90;;;;;;5006956;28;20461;-43
2024/02/25 09:48:55;;;;;;;1.73;0.83;;;8.50;99.90;;;;;;5007449;28;20251;-45
2024/02/25 09:51:24;;;;;;;5.63;1.00;;;8.60;99.90;;;;;;5190863;22;20902;-45
2024/02/25 09:53:55;;;;;;;1.45;0.70;;;8.60;99.90;;;;;;5012553;28;20221;-45
2024/02/25 09:56:24;;;;;;;1.67;0.70;;;8.50;99.90;;;;;;5007388;28;20217;-47
2024/02/25 09:58:56;;;;;;;5.72;0.90;;;8.60;99.90;;;;;;5030942;28;20822;-46
2024/02/25 10:01:26;;;;;;;2.63;0.90;;;8.50;99.90;;;;;;5026850;28;20213;-46
2024/02/25 10:03:55;;;;;;;2.08;1.02;;;8.60;99.90;;;;;;5027615;28;20529;-45
2024/02/25 10:06:26;;;;;;;2.08;0.95;;;8.50;99.90;;;;;;5012003;28;20303;-44
2024/02/25 10:08:57;;;;;;;4.20;1.00;;;8.50;99.90;;;;;;5025981;28;20574;-46
2024/02/25 10:11:27;;;;;;;2.88;0.82;;;8.50;99.90;;;;;;5020048;28;20468;-46
2024/02/25 10:13:57;;;;;;;2.97;0.77;;;8.50;99.90;;;;;;5029353;28;20291;-46
2024/02/25 10:16:25;;;;;;;3.40;1.07;;;8.50;99.90;;;;;;5023712;28;20205;-45
2024/02/25 10:19:00;;;;;;;1.73;0.70;;;8.50;99.90;;;;;;5026041;28;20852;-46
2024/02/25 10:21:28;;;;;;;2.13;0.60;;;8.50;99.90;;;;;;5019967;28;20514;-46
2024/02/25 10:23:57;;;;;;;3.25;0.70;;;8.50;99.90;;;;;;5027476;28;20270;-46
2024/02/25 10:26:26;;;;;;;1.80;0.70;;;8.50;99.90;;;;;;5025461;28;20225;-46
2024/02/25 10:29:06;;;;;;;1.50;0.60;;;8.50;99.90;;;;;;5030243;28;20436;-45
2024/02/25 10:31:37;;;;;;;2.70;0.93;;;8.50;99.90;;;;;;5026023;28;20462;-45
2024/02/25 10:34:09;;;;;;;1.58;0.73;;;8.50;99.90;;;;;;5023482;28;20456;-45
2024/02/25 10:36:40;;;;;;;1.97;0.60;;;8.60;99.90;;;;;;5024844;28;20213;-44
2024/02/25 10:39:09;;;;;;;1.30;0.57;;;8.50;99.90;;;;;;5022212;28;20531;-45
2024/02/25 10:41:38;;;;;;;1.73;0.90;;;8.60;99.90;;;;;;5025793;28;20814;-44
2024/02/25 10:44:08;;;;;;;1.30;0.53;;;8.60;99.90;;;;;;5025324;28;20209;-45
2024/02/25 10:46:41;;;;;;;1.53;0.60;;;8.60;99.90;;;;;;5024842;28;20463;-45
2024/02/25 10:49:17;;;;;;;2.65;0.80;;;8.60;99.90;;;;;;5031436;28;20447;-44
2024/02/25 10:51:46;;;;;;;1.50;0.55;;;8.60;99.90;;;;;;5029088;28;20595;-46
2024/02/25 10:54:17;;;;;;;1.70;0.77;;;8.60;99.90;;;;;;5031807;28;20555;-45
2024/02/25 10:56:46;;;;;;;12.45;1.23;;;8.60;99.90;;;;;;5027745;28;20512;-44
2024/02/25 10:59:19;;;;;;;4.03;1.03;;;8.60;99.90;;;;;;5026505;28;20216;-45
2024/02/25 11:01:50;;;;;;;1.40;0.73;;;8.70;99.90;;;;;;5027730;28;21001;-44
2024/02/25 11:04:22;;;;;;;2.07;0.70;;;8.80;99.90;;;;;;5029933;28;20948;-44
2024/02/25 11:06:51;;;;;;;2.00;0.83;;;8.70;99.90;;;;;;5025571;28;20884;-45
2024/02/25 11:09:19;;;;;;;5.50;1.10;;;8.70;99.90;;;;;;5027011;28;20485;-45
2024/02/25 11:11:48;;;;;;;1.48;0.82;;;8.60;99.90;;;;;;5030159;28;20228;-46
2024/02/25 11:14:39;;;;;;;2.25;0.77;;;8.60;99.90;;;;;;5023909;28;20306;-45
2024/02/25 11:17:15;;;;;;;1.40;0.60;;;8.60;99.90;;;;;;5030368;28;20226;-44
2024/02/25 11:19:57;;;;;;;1.80;0.52;;;8.60;99.90;;;;;;5030256;28;20205;-45
2024/02/25 11:22:42;;;;;;;4.97;0.90;;;8.60;99.90;;;;;;5027359;28;20607;-45
2024/02/25 11:25:34;;;;;;;2.53;0.80;;;8.60;99.90;;;;;;5029847;28;20216;-46
2024/02/25 11:28:04;;;;;;;2.95;0.90;;;8.60;99.90;;;;;;5024081;28;21093;-45
2024/02/25 11:30:41;;;;;;;5.03;1.77;;;8.60;99.90;;;;;;5028488;28;20217;-47
2024/02/25 11:33:38;;;;;;;3.20;1.17;;;8.60;99.90;;;;;;5022277;28;20556;-45
2024/02/25 11:36:11;;;;;;;2.85;0.70;;;8.60;99.90;;;;;;5027859;28;20271;-47
2024/02/25 11:38:44;;;;;;;1.40;0.68;;;8.60;99.90;;;;;;5027005;28;20192;-46
2024/02/25 11:41:14;;;;;;;1.27;0.60;;;8.60;99.90;;;;;;5025715;28;20417;-47
2024/02/25 11:43:42;;;;;;;1.33;0.55;;;8.60;99.90;;;;;;5024102;28;20578;-45
2024/02/25 11:46:11;;;;;;;1.60;0.77;;;8.60;99.90;;;;;;5018388;28;20256;-44
2024/02/25 11:48:42;;;;;;;1.23;0.57;;;8.60;99.90;;;;;;5026665;28;20439;-46
2024/02/25 11:51:16;;;;;;;4.95;1.20;;;8.60;99.90;;;;;;5030462;28;20465;-43
2024/02/25 11:53:50;;;;;;;2.10;0.70;;;8.60;99.90;;;;;;5027712;28;20246;-45
2024/02/25 11:56:20;;;;;;;3.88;0.90;;;8.60;99.90;;;;;;5028156;28;20452;-45
2024/02/25 11:58:52;;;;;;;1.75;0.50;;;8.60;99.90;;;;;;5027031;28;20195;-45
2024/02/25 12:01:23;;;;;;;1.43;0.80;;;8.50;99.90;;;;;;5027800;28;20221;-45
2024/02/25 12:03:51;;;;;;;2.10;0.80;;;8.50;99.90;;;;;;5027937;28;20464;-45
2024/02/25 12:06:25;;;;;;;2.53;0.63;;;8.50;99.90;;;;;;5028687;28;20433;-45
2024/02/25 12:08:53;;;;;;;1.50;0.60;;;8.50;99.90;;;;;;5028976;28;20436;-45
2024/02/25 12:11:25;;;;;;;2.05;0.80;;;8.50;99.90;;;;;;5025605;28;20899;-45
2024/02/25 12:14:04;;;;;;;1.30;0.50;;;8.50;99.90;;;;;;5020556;28;20762;-45
2024/02/25 12:16:35;;;;;;;1.20;0.50;;;8.60;99.90;;;;;;5022778;28;20479;-45
2024/02/25 12:19:06;;;;;;;1.40;0.50;;;8.60;99.90;;;;;;5019706;28;20588;-45
2024/02/25 12:21:35;;;;;;;1.42;0.65;;;8.50;99.90;;;;;;5017605;28;20500;-45
2024/02/25 12:24:07;;;;;;;1.85;0.60;;;8.50;99.90;;;;;;5024777;28;20277;-45
2024/02/25 12:26:48;;;;;;;3.47;0.77;;;8.50;99.90;;;;;;5025215;28;20277;-44
2024/02/25 12:29:17;;;;;;;1.42;0.50;;;8.50;99.90;;;;;;5023841;28;20604;-45
2024/02/25 12:31:45;;;;;;;2.40;0.65;;;8.50;99.90;;;;;;5028606;28;20217;-46
2024/02/25 12:34:13;;;;;;;1.95;0.80;;;8.50;99.90;;;;;;5028395;28;20216;-45
2024/02/25 12:36:45;;;;;;;1.02;0.47;;;8.50;99.90;;;;;;5024828;28;20732;-46
2024/02/25 12:39:18;;;;;;;1.33;0.50;;;8.50;99.90;;;;;;5025499;28;20188;-46
2024/02/25 12:41:54;;;;;;;1.20;0.50;;;8.50;99.90;;;;;;5023867;28;20246;-45
2024/02/25 12:44:23;;;;;;;1.20;0.40;;;8.50;99.90;;;;;;5027696;28;20208;-46
2024/02/25 12:46:55;;;;;;;1.10;0.50;;;8.50;99.90;;;;;;5020324;28;20227;-46
2024/02/25 12:49:23;;;;;;;1.20;0.60;;;8.50;99.90;;;;;;5029256;28;20197;-46
2024/02/25 12:51:57;;;;;;;1.10;0.50;;;8.50;99.90;;;;;;5023296;28;20286;-45
2024/02/25 12:54:27;;;;;;;1.40;0.60;;;8.50;99.90;;;;;;5028616;28;20467;-49
2024/02/25 12:56:57;;;;;;;1.30;0.30;;;8.50;99.90;;;;;;5028520;28;20220;-46
2024/02/25 12:59:26;;;;;;;1.42;0.40;;;8.50;99.90;;;;;;5028369;28;20686;-50
2024/02/25 13:01:57;;;;;;;1.58;0.50;;;8.50;99.90;;;;;;5029625;28;20215;-45
2024/02/25 13:04:28;;;;;;;1.50;0.50;;;8.50;99.90;;;;;;5028116;28;20691;-47
2024/02/25 13:06:58;;;;;;;1.40;0.50;;;8.50;99.90;;;;;;5029961;28;20215;-46
2024/02/25 13:09:28;;;;;;;1.73;0.65;;;8.50;99.90;;;;;;5025411;28;20204;-45
2024/02/25 13:11:56;;;;;;;1.55;0.70;;;8.50;99.90;;;;;;5023008;28;20220;-45
2024/02/25 13:14:24;;;;;;;1.52;0.50;;;8.50;99.90;;;;;;5026987;28;20274;-48